Latest Weather Observations for Montague Island

IDN60901

Issued at 11:41 pm EST Saturday 28 May 2016 (issued every 10 minutes, with the page automatically refreshed every 10 minutes)

About weather observations | Map of Canberra area stations | Latest observations for Canberra area | Other Formats
Station Details ID: 069017 Name: MONTAGUE ISLAND LIGHTHOUSE Lat: -36.25 Lon: 150.23 Height: 52.0 m
Data from the previous 72 hours. | See also: Recent months at Montague Island
Date/Time
EST
Tmp

°C
App
Tmp
°C
Dew
Point
°C
Rel
Hum
%
Delta-T

°C
Wind Press
QNH
hPa
Press
MSL
hPa
Rain
since
9 am
mm
Dir
 
Spd
km/h
Gust
km/h
Spd
kts
Gust
kts
28/11:30pm 12.5 6.8 4.7 59 3.6 SW 24 32 13 17 1011.3 1011.3 1.0
28/11:00pm 12.4 6.4 5.3 62 3.3 SW 26 30 14 16 1011.2 1011.2 1.0
28/10:30pm 12.6 7.5 6.0 64 3.1 SW 22 28 12 15 1011.0 1011.0 1.0
28/10:00pm 13.0 8.0 6.4 64 3.2 SW 22 30 12 16 1010.8 1010.8 1.0
28/09:30pm 13.0 8.0 6.6 65 3.1 SW 22 28 12 15 1010.8 1010.8 1.0
28/09:00pm 12.9 7.9 6.3 64 3.1 SW 22 32 12 17 1010.8 1010.8 1.0
28/08:30pm 12.9 7.9 6.3 64 3.1 WSW 22 30 12 16 1010.5 1010.5 1.0
28/08:00pm 12.8 7.9 7.0 68 2.8 WSW 22 28 12 15 1010.2 1010.2 1.0
28/07:30pm 13.2 7.7 7.6 69 2.7 SW 26 35 14 19 1009.8 1009.8 1.0
28/07:00pm 13.3 7.7 7.3 67 2.9 SW 26 35 14 19 1009.3 1009.3 1.0
28/06:30pm 13.2 7.3 7.6 69 2.7 SW 28 35 15 19 1008.8 1008.8 1.0
28/06:00pm 13.2 7.6 7.2 67 2.9 SW 26 37 14 20 1008.3 1008.3 1.0
28/05:30pm 13.2 7.7 7.4 68 2.8 SW 26 39 14 21 1007.7 1007.7 1.0
28/05:00pm 13.2 7.2 7.2 67 2.9 SW 28 37 15 20 1007.4 1007.3 1.0
28/04:30pm 13.2 5.9 7.0 66 3.0 SW 35 44 19 24 1006.9 1006.8 1.0
28/04:00pm 13.4 6.7 8.0 70 2.7 WSW 33 43 18 23 1006.6 1006.5 1.0
28/03:30pm 12.7 7.1 8.8 77 2.0 WSW 28 39 15 21 1006.2 1006.1 1.0
28/03:00pm 12.2 6.9 8.5 78 1.8 WSW 26 35 14 19 1005.9 1005.8 1.0
28/02:30pm 11.8 6.5 8.3 79 1.7 WSW 26 33 14 18 1005.7 1005.6 0.8
28/02:00pm 11.6 4.1 7.9 78 1.8 WSW 37 46 20 25 1005.6 1005.5 0.4
28/01:30pm 13.0 5.8 7.5 69 2.7 SW 35 48 19 26 1005.3 1005.2 0.0
28/01:00pm 13.4 6.2 5.8 60 3.6 SW 33 48 18 26 1005.2 1005.1 0.0
28/12:30pm 13.9 5.5 5.5 57 4.0 SW 39 52 21 28 1005.1 1005.0 0.0
28/12:00pm 14.8 7.3 6.1 56 4.2 SW 35 48 19 26 1004.8 1004.7 0.0
28/11:30am 14.9 8.6 5.7 54 4.4 SSW 28 43 15 23 1005.0 1004.9 0.0
28/11:00am 15.1 10.4 5.0 51 4.8 SSW 19 26 10 14 1005.6 1005.5 0.0
28/10:30am 15.2 9.3 3.7 46 5.3 SW 24 33 13 18 1005.8 1005.7 0.0
28/10:00am 15.0 8.9 2.9 44 5.5 SW 24 35 13 19 1005.8 1005.7 0.0
28/09:30am 13.4 8.1 1.7 45 5.1 WSW 19 28 10 15 1006.0 1005.9 0.0
28/09:00am 13.4 8.8 3.5 51 4.5 W 17 20 9 11 1005.9 1005.8 0.0
28/08:30am 12.7 8.1 3.9 55 4.0 W 17 22 9 12 1006.0 1005.9 0.0
28/08:00am 12.6 7.9 3.3 53 4.2 W 17 22 9 12 1006.0 1005.9 0.0
28/07:30am 11.8 6.8 4.5 61 3.3 W 20 24 11 13 1005.9 1005.8 0.0
28/07:00am 12.0 6.0 3.3 55 3.9 W 24 32 13 17 1005.9 1005.8 0.0
28/06:30am 11.8 6.1 2.8 54 3.9 W 22 30 12 16 1005.7 1005.6 0.0
28/06:00am 11.8 6.6 2.5 53 4.1 WNW 19 33 10 18 1005.6 1005.5 0.0
28/05:30am 12.2 7.4 4.7 60 3.4 W 19 26 10 14 1005.4 1005.3 0.0
28/05:00am 12.4 7.7 3.4 54 4.0 W 17 22 9 12 1005.2 1005.1 0.0
28/04:30am 12.2 7.5 3.2 54 4.0 W 17 20 9 11 1005.1 1005.0 0.0
28/04:00am 12.2 7.2 3.7 56 3.8 WNW 19 28 10 15 1005.1 1005.0 0.0
28/03:30am 12.6 7.4 3.3 53 4.1 W 20 26 11 14 1005.0 1004.9 0.0
28/03:00am 12.8 7.7 2.9 51 4.4 W 19 26 10 14 1005.1 1005.0 0.0
28/02:30am 12.7 7.1 3.6 54 4.1 W 22 26 12 14 1005.2 1005.1 0.0
28/02:00am 12.7 7.1 3.6 54 4.1 W 22 32 12 17 1005.3 1005.2 0.0
28/01:30am 13.1 7.5 3.7 53 4.2 W 22 32 12 17 1005.4 1005.3 0.0
28/01:00am 13.3 8.2 3.9 53 4.3 W 20 28 11 15 1005.2 1005.1 0.0
28/12:30am 13.6 8.4 3.7 51 4.5 W 20 26 11 14 1005.3 1005.2 0.0
28/12:00am 13.9 8.6 3.1 48 4.9 W 20 28 11 15 1005.2 1005.1 0.0
 
Date/Time
EST
Tmp

°C
App
Tmp
°C
Dew
Point
°C
Rel
Hum
%
Delta-T

°C
Wind Press
QNH
hPa
Press
MSL
hPa
Rain
since
9 am
mm
Dir
 
Spd
km/h
Gust
km/h
Spd
kts
Gust
kts
27/11:30pm 13.8 9.0 2.7 47 4.9 W 17 24 9 13 1005.3 1005.2 0.0
27/11:00pm 14.2 8.1 2.5 45 5.2 WSW 24 32 13 17 1005.2 1005.1 0.0
27/10:30pm 14.2 7.0 3.1 47 5.0 WSW 30 37 16 20 1004.8 1004.7 0.0
27/10:00pm 14.3 6.5 2.9 46 5.1 WSW 33 43 18 23 1004.5 1004.4 0.0
27/09:30pm 14.1 6.5 2.7 46 5.1 SW 32 41 17 22 1004.2 1004.1 0.0
27/09:00pm 14.3 6.6 3.2 47 5.0 WSW 33 39 18 21 1004.0 1003.9 0.0
27/08:30pm 14.5 6.0 3.3 47 5.1 SW 37 44 20 24 1004.0 1003.9 0.0
27/08:00pm 14.7 5.6 3.8 48 5.0 SW 41 50 22 27 1003.8 1003.7 0.0
27/07:30pm 15.0 5.2 5.2 52 4.6 SW 46 65 25 35 1003.5 1003.4 0.0
27/07:00pm 15.0 3.9 4.7 50 4.8 SW 52 65 28 35 1003.1 1003.0 0.0
27/06:30pm 15.1 4.1 4.8 50 4.8 SW 52 69 28 37 1002.5 1002.4 0.0
27/06:00pm 15.0 3.6 4.7 50 4.8 SW 54 74 29 40 1002.1 1002.0 0.0
27/05:34pm 15.1 4.7 4.2 48 5.1 SW 48 69 26 37 1001.7 1001.6 0.0
27/05:30pm 15.2 4.6 4.9 50 4.8 SW 50 63 27 34 1001.7 1001.6 0.0
27/05:00pm 15.2 3.7 4.3 48 5.1 SW 54 78 29 42 1000.8 1000.7 0.0
27/04:42pm 15.2 4.0 4.0 47 5.2 SW 52 70 28 38 1000.6 1000.5 0.0
27/04:30pm 15.3 3.2 4.1 47 5.2 SW 57 72 31 39 1000.3 1000.2 0.0
27/04:00pm 15.5 2.2 3.9 46 5.4 SW 63 83 34 45 999.6 999.5 0.0
27/03:35pm 15.7 3.7 5.0 49 5.1 SW 57 76 31 41 999.5 999.4 0.0
27/03:30pm 15.7 2.8 4.1 46 5.4 SW 61 76 33 41 999.2 999.1 0.0
27/03:04pm 16.0 3.9 4.1 45 5.5 SW 57 76 31 41 998.8 998.7 0.0
27/03:00pm 16.0 3.9 3.4 43 5.8 SW 56 72 30 39 998.8 998.7 0.0
27/02:33pm 16.4 5.7 4.4 45 5.6 WSW 50 69 27 37 998.6 998.5 0.0
27/02:30pm 16.5 5.1 4.9 46 5.5 WSW 54 69 29 37 998.6 998.5 0.0
27/02:00pm 16.9 5.6 3.2 40 6.4 WSW 52 65 28 35 998.2 998.1 0.0
27/01:30pm 16.0 3.8 2.8 41 6.0 WSW 56 78 30 42 998.1 998.0 0.0
27/01:18pm 17.0 6.8 3.0 39 6.4 WSW 46 69 25 37 998.3 998.2 0.0
27/01:00pm 16.3 7.0 3.0 41 6.1 WSW 41 56 22 30 998.4 998.3 0.0
27/12:30pm 15.7 5.8 2.5 41 5.9 WSW 44 59 24 32 998.5 998.4 0.0
27/12:00pm 16.1 5.0 4.5 46 5.5 WSW 52 72 28 39 998.8 998.7 0.0
27/11:53am 15.9 4.5 3.0 42 5.9 WSW 52 72 28 39 998.6 998.5 0.0
27/11:30am 15.5 5.7 3.6 45 5.5 WSW 44 56 24 30 998.8 998.7 0.0
27/11:00am 15.6 5.9 2.7 42 5.9 WSW 43 61 23 33 999.2 999.1 0.0
27/10:30am 15.8 6.3 1.9 39 6.2 WSW 41 59 22 32 999.4 999.3 0.0
27/10:00am 15.3 5.5 2.1 41 5.9 WSW 43 59 23 32 999.5 999.4 0.0
27/09:48am 15.4 6.9 3.2 44 5.5 WSW 37 59 20 32 999.6 999.5 0.0
27/09:30am 15.1 5.3 3.6 46 5.3 WSW 44 57 24 31 999.7 999.6 0.0
27/09:10am 14.8 5.0 2.0 42 5.6 WSW 43 63 23 34 999.5 999.4 0.0
27/09:00am 14.5 4.9 3.3 47 5.1 WSW 43 57 23 31 999.5 999.4 2.4
27/08:30am 14.6 4.1 3.4 47 5.1 WSW 48 61 26 33 999.5 999.4 2.4
27/08:00am 13.8 3.9 2.7 47 5.0 W 44 56 24 30 999.4 999.3 2.4
27/07:30am 13.9 3.6 2.8 47 4.9 W 46 57 25 31 999.2 999.1 2.4
27/07:00am 13.5 3.3 3.3 50 4.6 WSW 46 59 25 32 999.2 999.1 2.4
27/06:30am 13.5 5.1 3.8 52 4.4 WSW 37 48 20 26 999.2 999.1 2.4
27/06:00am 13.5 5.5 3.8 52 4.4 WSW 35 44 19 24 999.2 999.1 2.4
27/05:30am 13.8 5.5 4.4 53 4.3 WSW 37 46 20 25 999.0 998.9 2.4
27/05:00am 13.8 6.1 3.6 50 4.7 WSW 33 44 18 24 999.2 999.1 2.4
27/04:30am 13.8 6.8 3.9 51 4.5 W 30 41 16 22 999.0 998.9 2.4
27/04:00am 13.7 6.4 4.3 53 4.3 WSW 32 41 17 22 998.9 998.8 2.4
27/03:30am 13.7 7.6 4.6 54 4.2 WSW 26 33 14 18 998.9 998.8 2.4
27/03:00am 13.6 7.8 4.2 53 4.3 WSW 24 32 13 17 998.9 998.8 2.4
27/02:30am 13.8 6.9 4.7 54 4.2 WSW 30 37 16 20 999.0 998.9 2.4
27/02:00am 13.7 7.5 4.3 53 4.3 WSW 26 35 14 19 998.9 998.8 2.4
27/01:30am 13.8 6.5 4.7 54 4.2 W 32 39 17 21 998.8 998.7 2.4
27/01:00am 13.9 7.6 5.5 57 4.0 W 28 35 15 19 999.0 998.9 2.4
27/12:30am 13.7 7.6 6.8 63 3.3 WSW 28 35 15 19 999.3 999.2 2.4
27/12:00am 13.1 7.1 6.9 66 3.0 SW 28 35 15 19 999.5 999.4 2.4
 
Date/Time
EST
Tmp

°C
App
Tmp
°C
Dew
Point
°C
Rel
Hum
%
Delta-T

°C
Wind Press
QNH
hPa
Press
MSL
hPa
Rain
since
9 am
mm
Dir
 
Spd
km/h
Gust
km/h
Spd
kts
Gust
kts
26/11:30pm 13.8 8.3 9.0 73 2.4 SW 28 35 15 19 999.6 999.5 2.4
26/11:00pm 13.4 9.2 11.1 86 1.2 SW 24 32 13 17 999.4 999.3 2.4
26/10:30pm 13.4 10.2 11.3 87 1.1 SW 19 26 10 14 999.6 999.5 2.4
26/10:00pm 13.4 11.3 11.3 87 1.1 W 13 17 7 9 999.6 999.5 2.4
26/09:30pm 13.5 11.4 11.2 86 1.2 W 13 17 7 9 999.7 999.6 2.4
26/09:00pm 13.2 11.4 10.9 86 1.2 W 11 13 6 7 999.7 999.6 2.4
26/08:30pm 13.4 12.1 11.3 87 1.1 W 9 13 5 7 999.5 999.4 2.4
26/08:00pm 13.6 12.0 11.5 87 1.1 WSW 11 15 6 8 999.4 999.3 2.4
26/07:30pm 13.9 12.0 11.8 87 1.1 SW 13 17 7 9 999.5 999.4 2.4
26/07:00pm 14.2 12.3 11.7 85 1.4 WSW 13 17 7 9 999.5 999.4 2.4
26/06:30pm 14.4 11.7 11.6 83 1.5 S 17 22 9 12 999.2 999.1 2.4
26/06:00pm 14.2 11.1 11.7 85 1.4 S 19 24 10 13 999.0 998.9 2.4
26/05:30pm 14.2 11.0 11.4 83 1.5 S 19 24 10 13 998.6 998.5 2.4
26/05:00pm 14.4 11.0 11.2 81 1.7 S 20 26 11 14 998.5 998.4 2.4
26/04:30pm 14.7 11.7 11.8 83 1.6 S 19 24 10 13 998.1 998.0 2.4
26/04:00pm 15.0 11.8 11.4 79 1.9 SSW 19 24 10 13 997.9 997.8 2.4
26/03:30pm 15.4 12.9 11.0 75 2.3 SW 15 19 8 10 997.8 997.7 2.4
26/03:00pm 17.1 15.8 11.2 68 3.2 W 9 13 5 7 997.8 997.7 2.4
26/02:30pm 16.1 14.3 10.8 71 2.8 WNW 11 19 6 10 997.8 997.7 2.4
26/02:00pm 15.2 13.5 11.2 77 2.2 W 11 17 6 9 998.2 998.1 2.4
26/01:30pm 15.2 13.4 10.8 75 2.3 W 11 17 6 9 998.2 998.1 2.4
26/01:00pm 15.2 9.7 10.4 73 2.5 NNW 30 41 16 22 998.8 998.7 2.4
26/12:30pm 14.8 10.5 11.9 83 1.6 NW 26 37 14 20 999.6 999.5 2.2
26/12:00pm 14.4 11.0 11.4 82 1.6 NNW 20 28 11 15 1000.1 1000.0 1.6
26/11:30am 13.7 9.9 11.0 84 1.4 NNW 22 30 12 16 1000.9 1000.8 1.4
26/11:00am 14.5 10.4 11.3 81 1.7 NNW 24 35 13 19 1001.6 1001.5 1.0
26/10:30am 14.5 10.6 10.9 79 1.9 NNW 22 32 12 17 1002.4 1002.3 1.0
26/10:00am 14.0 9.6 10.4 79 1.9 NNW 24 33 13 18 1002.8 1002.7 0.8
26/09:30am 13.9 9.8 11.6 86 1.2 NW 24 35 13 19 1003.2 1003.1 0.8
26/09:00am 14.0 10.3 11.5 85 1.3 NNW 22 33 12 18 1004.0 1003.9 0.8
26/08:30am 13.8 8.8 11.0 83 1.5 NNW 28 37 15 20 1004.6 1004.5 0.4
26/08:00am 14.8 11.2 10.6 76 2.2 NNW 20 30 11 16 1004.5 1004.4 0.0
26/07:30am 14.9 11.2 11.5 80 1.8 NNW 22 35 12 19 1004.8 1004.7 0.0
26/07:00am 15.1 10.7 10.3 73 2.5 NNW 24 33 13 18 1005.1 1005.0 0.0
26/06:30am 14.6 10.5 10.2 75 2.3 N 22 30 12 16 1005.0 1004.9 0.0
26/06:00am 14.5 10.0 9.9 74 2.4 NNW 24 35 13 19 1005.4 1005.3 0.0
26/05:30am 14.8 9.5 10.0 73 2.5 NNW 28 37 15 20 1005.8 1005.7 0.0
26/05:00am 15.0 10.0 9.6 70 2.8 N 26 37 14 20 1006.2 1006.1 0.0
26/04:30am 15.4 9.0 8.4 63 3.5 NNW 32 39 17 21 1006.2 1006.1 0.0
26/04:00am 15.6 10.1 7.6 59 4.0 NNW 26 39 14 21 1006.5 1006.4 0.0
26/03:30am 15.6 11.4 8.4 62 3.7 NNW 20 30 11 16 1006.7 1006.6 0.0
26/03:00am 15.4 11.8 6.9 57 4.2 NW 15 19 8 10 1007.0 1006.9 0.0
26/02:30am 15.3 12.7 7.6 60 3.8 NW 11 17 6 9 1007.7 1007.7 0.0
26/02:00am 15.4 11.9 7.4 59 4.0 NW 15 19 8 10 1008.3 1008.3 0.0
26/01:30am 16.0 12.2 7.5 57 4.2 NW 17 24 9 13 1008.4 1008.4 0.0
26/01:00am 15.6 11.3 7.1 57 4.2 NW 19 26 10 14 1008.8 1008.8 0.0
26/12:30am 15.6 11.0 8.1 61 3.8 NW 22 33 12 18 1009.0 1009.0 0.0
26/12:00am 16.0 11.0 6.4 53 4.7 WNW 22 32 12 17 1009.2 1009.2 0.0

Latest Capital City Observations: Canberra | Sydney | Melbourne | Brisbane | Adelaide | Perth | Hobart | Darwin

Other Formats:

Comma delimited format used in spreadsheet applications
http://www.bom.gov.au/fwo/IDN60903/IDN60903.94939.axf

JavaScript Object Notation format (JSON) in row-major order
http://www.bom.gov.au/fwo/IDN60903/IDN60903.94939.json